In Rescue
 
Open Full Screen Window  High Contrast Mode
Wind Gusting 14 knots
09
June 22, 2024 7:39 PM CDT
Weather Information
Wind Direction
  320 °
Wind Speed
  09 kt (10 mph)
Wind Gust
  14 kt (16 mph)
Altimeter
29.84 in
Visibility
10 SM
Temperature
19° C
66° F
Dewpoint
16° C
61° F
Humidity
83%
Sky Condition
Overcast @ 800 ft
IFR

METAR KMGG 230039Z AUTO 32009G14KT 10SM OVC008 19/16 A2984 RMK AO2 T01850160

FAA Disclaimer: The data displayed is for advisory purposes only and is not to be used for flight planning or operations.